Time;durP1;ratioP1;P1;durP2;ratioP2;P2;SDS_P1;SDS_P2;PMS_P1;PMS_P2;Temp;Humidity;BMP_temperature;BMP_pressure;BME280_temperature;BME280_humidity;BME280_pressure;Samples;Min_cycle;Max_cycle;Signal;HPM_P1;HPM_P2
2022/04/20 00:00:35;;;;;;;;;28.25;22.00;;;;;-146.67;100.00;57155.34;5084046;27;61985;-82
2022/04/20 00:03:05;;;;;;;;;22.75;19.25;;;;;-146.67;100.00;57155.34;5084065;27;61957;-82
2022/04/20 00:05:33;;;;;;;;;24.50;20.00;;;;;-146.67;100.00;57155.34;5083538;27;61811;-82
2022/04/20 00:08:02;;;;;;;;;22.00;18.75;;;;;-146.67;100.00;57155.34;5083064;27;62809;-82
2022/04/20 00:10:31;;;;;;;;;23.75;21.25;;;;;-146.67;100.00;57155.34;5083447;27;61735;-82
2022/04/20 00:12:57;;;;;;;;;28.00;22.50;;;;;-146.67;100.00;57155.34;5081675;28;62031;-81
2022/04/20 00:15:23;;;;;;;;;29.75;25.00;;;;;-146.67;100.00;57155.34;5116417;27;61827;-82
2022/04/20 00:17:49;;;;;;;;;26.00;20.75;;;;;-146.67;100.00;57155.34;5081690;28;62828;-82
2022/04/20 00:20:15;;;;;;;;;27.25;21.00;;;;;-146.67;100.00;57155.34;5082068;28;62463;-82
2022/04/20 00:22:40;;;;;;;;;27.75;22.00;;;;;-146.67;100.00;57155.34;5083785;28;61759;-82
2022/04/20 00:25:06;;;;;;;;;25.50;22.00;;;;;-146.67;100.00;57155.34;5083761;27;62025;-82
2022/04/20 00:27:35;;;;;;;;;24.25;22.25;;;;;-146.67;100.00;57155.34;5082658;28;62732;-82
2022/04/20 00:30:06;;;;;;;;;29.75;23.50;;;;;-146.67;100.00;57155.34;5083031;28;61969;-82
2022/04/20 00:32:32;;;;;;;;;33.75;27.00;;;;;-146.67;100.00;57155.34;5083333;28;61733;-82
2022/04/20 00:34:57;;;;;;;;;27.75;23.00;;;;;-146.67;100.00;57155.34;5083453;27;61921;-82
2022/04/20 00:37:23;;;;;;;;;30.75;20.25;;;;;-146.67;100.00;57155.34;5082467;27;62766;-82
2022/04/20 00:39:49;;;;;;;;;36.50;28.50;;;;;-146.67;100.00;57155.34;5082617;28;61834;-82
2022/04/20 00:42:14;;;;;;;;;32.75;28.25;;;;;-146.67;100.00;57155.34;5082980;27;61762;-82
2022/04/20 00:44:41;;;;;;;;;33.75;23.75;;;;;-146.67;100.00;57155.34;5083024;28;61863;-82
2022/04/20 00:47:09;;;;;;;;;34.50;29.75;;;;;-146.67;100.00;57155.34;5098184;27;63893;-82
2022/04/20 00:49:38;;;;;;;;;40.75;31.00;;;;;-146.67;100.00;57155.34;5098718;27;61813;-83
2022/04/20 00:52:06;;;;;;;;;24.50;22.00;;;;;-146.67;100.00;57155.34;5081551;28;62091;-82
2022/04/20 00:54:31;;;;;;;;;32.25;26.00;;;;;-146.67;100.00;57155.34;5083185;27;61995;-82
2022/04/20 00:56:57;;;;;;;;;35.75;30.00;;;;;-146.67;100.00;57155.34;5081002;28;64869;-82
2022/04/20 00:59:28;;;;;;;;;30.75;26.00;;;;;-146.67;100.00;57155.34;5082516;27;61861;-82
2022/04/20 01:01:55;;;;;;;;;38.75;32.75;;;;;-146.67;100.00;57155.34;5081939;28;62191;-82
2022/04/20 01:04:20;;;;;;;;;31.25;29.50;;;;;-146.67;100.00;57155.34;5081502;28;61840;-82
2022/04/20 01:06:49;;;;;;;;;33.75;29.00;;;;;-146.67;100.00;57155.34;5082071;27;63351;-82
2022/04/20 01:09:15;;;;;;;;;35.00;29.00;;;;;-146.67;100.00;57155.34;5082605;28;61904;-82
2022/04/20 01:11:41;;;;;;;;;33.50;28.00;;;;;-146.67;100.00;57155.34;5098194;27;61794;-82
2022/04/20 01:14:06;;;;;;;;;35.75;34.75;;;;;-146.67;100.00;57155.34;5098427;27;61975;-82
2022/04/20 01:16:32;;;;;;;;;44.25;34.50;;;;;-146.67;100.00;57155.34;5081730;27;61865;-82
2022/04/20 01:18:57;;;;;;;;;33.25;29.25;;;;;-146.67;100.00;57155.34;5098296;27;61828;-82
2022/04/20 01:21:24;;;;;;;;;38.75;33.50;;;;;-146.67;100.00;57155.34;5081183;28;61942;-82
2022/04/20 01:23:50;;;;;;;;;40.25;33.00;;;;;-146.67;100.00;57155.34;5081089;28;61805;-81
2022/04/20 01:26:16;;;;;;;;;42.75;38.00;;;;;-146.67;100.00;57155.34;5082064;28;62855;-82
2022/04/20 01:28:44;;;;;;;;;44.00;31.50;;;;;-146.67;100.00;57155.34;5081997;27;61856;-82
2022/04/20 01:31:16;;;;;;;;;50.75;38.00;;;;;-146.67;100.00;57155.34;5080762;28;61751;-83
2022/04/20 01:33:42;;;;;;;;;36.00;30.25;;;;;-146.67;100.00;57155.34;5082431;27;61760;-82
2022/04/20 01:36:09;;;;;;;;;47.50;38.50;;;;;-146.67;100.00;57155.34;5081718;27;63707;-81
2022/04/20 01:38:38;;;;;;;;;42.25;35.25;;;;;-146.67;100.00;57155.34;5081529;27;61719;-82
2022/04/20 01:41:04;;;;;;;;;42.50;34.75;;;;;-146.67;100.00;57155.34;5082178;28;62180;-82
2022/04/20 01:43:31;;;;;;;;;46.25;40.25;;;;;-146.67;100.00;57155.34;5082248;28;61983;-82
2022/04/20 01:45:56;;;;;;;;;49.25;40.00;;;;;-146.67;100.00;57155.34;5081844;27;61699;-82
2022/04/20 01:48:22;;;;;;;;;44.25;38.00;;;;;-146.67;100.00;57155.34;5081746;27;61815;-82
2022/04/20 01:53:31;;;;;;;;;46.25;40.00;;;;;-146.67;100.00;57155.34;5081941;28;61921;-82
2022/04/20 01:55:59;;;;;;;;;49.75;38.75;;;;;-146.67;100.00;57155.34;5079935;28;63440;-82
2022/04/20 01:58:24;;;;;;;;;56.75;41.00;;;;;-146.67;100.00;57155.34;5080504;28;61831;-82
2022/04/20 02:00:50;;;;;;;;;53.00;38.00;;;;;-146.67;100.00;57155.34;5097689;27;61705;-82
2022/04/20 02:03:15;;;;;;;;;46.75;39.75;;;;;-146.67;100.00;57155.34;5097947;27;61764;-82
2022/04/20 02:05:40;;;;;;;;;47.50;39.00;;;;;-146.67;100.00;57155.34;5080964;27;63055;-81
2022/04/20 02:08:06;;;;;;;;;50.50;40.00;;;;;-146.67;100.00;57155.34;5081691;28;61972;-81
2022/04/20 02:10:31;;;;;;;;;47.00;37.00;;;;;-146.67;100.00;57155.34;5097482;27;61920;-81
2022/04/20 02:12:57;;;;;;;;;53.50;39.75;;;;;-146.67;100.00;57155.34;5081981;27;61778;-82
2022/04/20 02:15:22;;;;;;;;;53.25;38.75;;;;;-146.67;100.00;57155.34;5080125;28;63628;-81
2022/04/20 02:17:48;;;;;;;;;51.25;41.75;;;;;-146.67;100.00;57155.34;5081846;27;62005;-82
2022/04/20 02:20:14;;;;;;;;;56.75;44.00;;;;;-146.67;100.00;57155.34;5081709;28;61879;-81
2022/04/20 02:22:40;;;;;;;;;56.50;45.00;;;;;-146.67;100.00;57155.34;5081441;27;61882;-81
2022/04/20 02:25:06;;;;;;;;;59.75;44.00;;;;;-146.67;100.00;57155.34;5079890;28;63666;-81
2022/04/20 02:27:31;;;;;;;;;57.00;42.50;;;;;-146.67;100.00;57155.34;5079890;28;61961;-82
2022/04/20 02:29:57;;;;;;;;;50.75;41.50;;;;;-146.67;100.00;57155.34;5080404;28;62166;-82
2022/04/20 02:32:22;;;;;;;;;50.75;39.00;;;;;-146.67;100.00;57155.34;5081801;27;61741;-81
2022/04/20 02:34:48;;;;;;;;;53.50;40.50;;;;;-146.67;100.00;57155.34;5080551;28;62564;-81
2022/04/20 02:37:14;;;;;;;;;53.00;39.75;;;;;-146.67;100.00;57155.34;5081506;27;61880;-81
2022/04/20 02:39:40;;;;;;;;;58.00;42.50;;;;;-146.67;100.00;57155.34;5080848;27;61967;-81
2022/04/20 02:42:08;;;;;;;;;66.50;46.00;;;;;-146.67;100.00;57155.34;5080334;28;62099;-82
2022/04/20 02:44:34;;;;;;;;;45.25;39.00;;;;;-146.67;100.00;57155.34;5084146;27;63097;-82
2022/04/20 02:47:01;;;;;;;;;57.75;44.00;;;;;-146.67;100.00;57155.34;5085087;27;61813;-82
2022/04/20 02:49:26;;;;;;;;;56.75;43.50;;;;;-146.67;100.00;57155.34;5084748;27;61755;-82
2022/04/20 02:51:52;;;;;;;;;54.50;42.25;;;;;-146.67;100.00;57155.34;5084798;27;62104;-82
2022/04/20 02:54:17;;;;;;;;;54.00;40.50;;;;;-146.67;100.00;57155.34;5084255;27;61728;-82
2022/04/20 02:56:43;;;;;;;;;61.50;46.75;;;;;-146.67;100.00;57155.34;5084580;27;61857;-82
2022/04/20 02:59:09;;;;;;;;;50.00;40.50;;;;;-146.67;100.00;57155.34;5084709;28;62110;-82
2022/04/20 03:01:34;;;;;;;;;62.00;48.00;;;;;-146.67;100.00;57155.34;5083536;28;61767;-82
2022/04/20 03:04:00;;;;;;;;;61.50;44.75;;;;;-146.67;100.00;57155.34;5082386;28;64807;-81
2022/04/20 03:06:28;;;;;;;;;62.75;47.00;;;;;-146.67;100.00;57155.34;5083011;28;61935;-82
2022/04/20 03:08:54;;;;;;;;;61.75;43.00;;;;;-146.67;100.00;57155.34;5099788;27;61783;-82
2022/04/20 03:11:20;;;;;;;;;63.00;45.25;;;;;-146.67;100.00;57155.34;5083353;28;61890;-81
2022/04/20 03:13:47;;;;;;;;;59.00;42.75;;;;;-146.67;100.00;57155.34;5082177;28;64066;-81
2022/04/20 03:16:12;;;;;;;;;54.50;45.00;;;;;-146.67;100.00;57155.34;5084509;27;62252;-81
2022/04/20 03:18:38;;;;;;;;;57.25;43.50;;;;;-146.67;100.00;57155.34;5084522;27;61922;-81
2022/04/20 03:21:03;;;;;;;;;61.75;47.50;;;;;-146.67;100.00;57155.34;5100055;27;62085;-81
2022/04/20 03:23:29;;;;;;;;;63.00;48.25;;;;;-146.67;100.00;57155.34;5083778;27;61944;-81
2022/04/20 03:25:54;;;;;;;;;64.75;46.75;;;;;-146.67;100.00;57155.34;5084023;27;62054;-81
2022/04/20 03:28:20;;;;;;;;;59.33;48.00;;;;;-146.67;100.00;57155.34;5084127;27;61855;-81
2022/04/20 03:30:46;;;;;;;;;67.75;52.00;;;;;-146.67;100.00;57155.34;5084692;27;62080;-81
2022/04/20 03:33:12;;;;;;;;;64.50;51.00;;;;;-146.67;100.00;57155.34;5083382;28;61798;-81
2022/04/20 03:35:38;;;;;;;;;67.00;51.67;;;;;-146.67;100.00;57155.34;5082626;28;62102;-81
2022/04/20 03:38:05;;;;;;;;;65.67;49.00;;;;;-146.67;100.00;57155.34;5099220;27;62005;-81
2022/04/20 03:40:31;;;;;;;;;71.00;55.75;;;;;-146.67;100.00;57155.34;5084220;27;61877;-81
2022/04/20 03:42:56;;;;;;;;;65.50;50.75;;;;;-146.67;100.00;57155.34;5083347;27;61841;-81
2022/04/20 03:45:21;;;;;;;;;59.25;48.50;;;;;-146.67;100.00;57155.34;5083991;27;61748;-82
2022/04/20 03:47:47;;;;;;;;;59.50;47.25;;;;;-146.67;100.00;57155.34;5084005;27;62391;-80
2022/04/20 03:50:12;;;;;;;;;69.25;50.50;;;;;-146.67;100.00;57155.34;5083785;27;61829;-81
2022/04/20 03:52:38;;;;;;;;;68.75;53.25;;;;;-146.67;100.00;57155.34;5082125;28;63779;-81
2022/04/20 03:55:04;;;;;;;;;61.00;47.00;;;;;-146.67;100.00;57155.34;5082230;28;61770;-80
2022/04/20 03:57:30;;;;;;;;;61.25;46.50;;;;;-146.67;100.00;57155.34;5083997;27;61924;-80
2022/04/20 03:59:55;;;;;;;;;62.75;47.00;;;;;-146.67;100.00;57155.34;5083793;27;61798;-81
2022/04/20 04:02:21;;;;;;;;;66.00;49.00;;;;;-146.67;100.00;57155.34;5082962;28;61755;-82
2022/04/20 04:04:47;;;;;;;;;66.25;48.75;;;;;-146.67;100.00;57155.34;5083295;27;61746;-81
2022/04/20 04:07:12;;;;;;;;;59.00;45.25;;;;;-146.67;100.00;57155.34;5083761;28;61887;-81
2022/04/20 04:09:38;;;;;;;;;69.00;49.50;;;;;-146.67;100.00;57155.34;5082222;28;61793;-81
2022/04/20 04:12:05;;;;;;;;;62.50;46.00;;;;;-146.67;100.00;57155.34;5081181;28;63726;-81
2022/04/20 04:14:31;;;;;;;;;70.33;50.00;;;;;-146.67;100.00;57155.34;5083493;27;61849;-81
2022/04/20 04:16:56;;;;;;;;;60.50;47.25;;;;;-146.67;100.00;57155.34;5083480;27;62423;-81
2022/04/20 04:19:21;;;;;;;;;63.33;49.00;;;;;-146.67;100.00;57155.34;5083525;27;61739;-81
2022/04/20 04:21:47;;;;;;;;;58.33;47.67;;;;;-146.67;100.00;57155.34;5082742;27;63173;-81
2022/04/20 04:24:34;;;;;;;;;73.33;52.00;;;;;-146.67;100.00;57155.34;5083053;27;61792;-81
2022/04/20 04:26:59;;;;;;;;;61.75;48.75;;;;;-146.67;100.00;57155.34;5083345;28;62353;-81
2022/04/20 04:29:25;;;;;;;;;72.00;54.00;;;;;-146.67;100.00;57155.34;5083380;27;61783;-81
2022/04/20 04:31:50;;;;;;;;;66.50;48.25;;;;;-146.67;100.00;57155.34;5081322;28;63695;-81
2022/04/20 04:34:16;;;;;;;;;67.33;51.33;;;;;-146.67;100.00;57155.34;5083062;27;62742;-80
2022/04/20 04:36:43;;;;;;;;;66.67;50.00;;;;;-146.67;100.00;57155.34;5083312;27;61878;-81
2022/04/20 04:39:08;;;;;;;;;66.33;54.00;;;;;-146.67;100.00;57155.34;5083016;28;62075;-81
2022/04/20 04:41:34;;;;;;;;;75.00;54.00;;;;;-146.67;100.00;57155.34;5081216;28;64737;-81
2022/04/20 04:44:01;;;;;;;;;76.67;53.00;;;;;-146.67;100.00;57155.34;5082990;27;61993;-81
2022/04/20 04:49:25;;;;;;;;;63.00;50.33;;;;;-146.67;100.00;57155.34;5083715;28;62015;-81
2022/04/20 04:51:50;;;;;;;;;73.67;53.67;;;;;-146.67;100.00;57155.34;5087119;28;61814;-80
2022/04/20 04:54:16;;;;;;;;;74.33;53.67;;;;;-146.67;100.00;57155.34;5083935;27;61702;-80
2022/04/20 04:56:41;;;;;;;;;72.00;56.33;;;;;-146.67;100.00;57155.34;5083145;27;61905;-80
2022/04/20 04:59:07;;;;;;;;;72.00;57.00;;;;;-146.67;100.00;57155.34;5082862;27;61925;-81
2022/04/20 05:01:32;;;;;;;;;70.67;53.33;;;;;-146.67;100.00;57155.34;5081874;27;61852;-80
2022/04/20 05:03:58;;;;;;;;;71.67;54.00;;;;;-146.67;100.00;57155.34;5082971;27;61887;-81
2022/04/20 05:06:24;;;;;;;;;72.67;54.33;;;;;-146.67;100.00;57155.34;5081627;27;62070;-81
2022/04/20 05:08:50;;;;;;;;;72.00;56.33;;;;;-146.67;100.00;57155.34;5081113;28;61770;-82
2022/04/20 05:11:16;;;;;;;;;63.00;47.33;;;;;-146.67;100.00;57155.34;5082145;27;61822;-80
2022/04/20 05:13:41;;;;;;;;;71.67;54.67;;;;;-146.67;100.00;57155.34;5083919;28;61885;-81
2022/04/20 05:16:08;;;;;;;;;71.67;53.33;;;;;-146.67;100.00;57155.34;5082369;27;61741;-81
2022/04/20 05:18:34;;;;;;;;;74.67;56.33;;;;;-146.67;100.00;57155.34;5081735;28;62098;-81
2022/04/20 05:21:00;;;;;;;;;71.50;55.00;;;;;-146.67;100.00;57155.34;5079515;28;63742;-81
2022/04/20 05:23:25;;;;;;;;;74.25;57.25;;;;;-146.67;100.00;57155.34;5082189;27;61762;-80
2022/04/20 05:25:50;;;;;;;;;68.00;53.67;;;;;-146.67;100.00;57155.34;5082605;27;61816;-80
2022/04/20 05:28:16;;;;;;;;;74.67;55.00;;;;;-146.67;100.00;57155.34;5097938;27;62128;-80
2022/04/20 05:30:41;;;;;;;;;71.33;54.00;;;;;-146.67;100.00;57155.34;5097092;27;61904;-80
2022/04/20 05:33:08;;;;;;;;;72.33;55.67;;;;;-146.67;100.00;57155.34;5094315;27;61839;-81
2022/04/20 05:35:33;;;;;;;;;73.00;55.67;;;;;-146.67;100.00;57155.34;5081761;27;61964;-80
2022/04/20 05:43:27;;;;;;;;;80.00;56.33;;;;;-146.67;100.00;57155.34;5080608;28;61864;-82
2022/04/20 05:45:52;;;;;;;;;76.67;57.67;;;;;-146.67;100.00;57155.34;5081283;27;62493;-81
2022/04/20 05:48:17;;;;;;;;;69.33;53.33;;;;;-146.67;100.00;57155.34;5080920;28;62231;-80
2022/04/20 05:50:45;;;;;;;;;75.75;56.75;;;;;-146.67;100.00;57155.34;5079349;28;63547;-81
2022/04/20 05:53:10;;;;;;;;;79.50;60.75;;;;;-146.67;100.00;57155.34;5081157;28;61965;-81
2022/04/20 05:55:36;;;;;;;;;72.00;55.67;;;;;-146.67;100.00;57155.34;5079674;28;61833;-81
2022/04/20 05:58:01;;;;;;;;;70.00;55.00;;;;;-146.67;100.00;57155.34;5081410;27;61817;-81
2022/04/20 06:00:27;;;;;;;;;70.33;54.00;;;;;-146.67;100.00;57155.34;5079861;27;62908;-81
2022/04/20 06:02:54;;;;;;;;;75.75;51.75;;;;;-146.67;100.00;57155.34;5080331;28;62591;-81
2022/04/20 06:05:20;;;;;;;;;74.50;54.50;;;;;-146.67;100.00;57155.34;5094698;27;61800;-81
2022/04/20 06:07:46;;;;;;;;;75.33;57.67;;;;;-146.67;100.00;57155.34;5088596;27;62057;-80
2022/04/20 06:10:12;;;;;;;;;76.33;53.33;;;;;-146.67;100.00;57155.34;5093244;27;63706;-81
2022/04/20 06:12:37;;;;;;;;;75.00;54.75;;;;;-146.67;100.00;57155.34;5073815;27;61932;-83
2022/04/20 06:15:03;;;;;;;;;70.00;55.33;;;;;-146.67;100.00;57155.34;5069526;28;62059;-82
2022/04/20 06:17:29;;;;;;;;;73.33;54.00;;;;;-146.67;100.00;57155.34;5076877;28;62128;-81
2022/04/20 06:19:55;;;;;;;;;73.75;53.50;;;;;-146.67;100.00;57155.34;5083124;28;63700;-81
2022/04/20 06:22:21;;;;;;;;;69.00;51.00;;;;;-146.67;100.00;57155.34;5081679;27;62016;-82
2022/04/20 06:24:46;;;;;;;;;71.75;52.50;;;;;-146.67;100.00;57155.34;5080497;28;61754;-83
2022/04/20 06:27:12;;;;;;;;;69.00;52.33;;;;;-146.67;100.00;57155.34;5065334;28;61958;-82
2022/04/20 06:29:37;;;;;;;;;64.75;51.00;;;;;-146.67;100.00;57155.34;5071933;28;61847;-82
2022/04/20 06:32:03;;;;;;;;;73.33;57.00;;;;;-146.67;100.00;57155.34;5084907;28;62016;-82
2022/04/20 06:34:30;;;;;;;;;70.50;55.50;;;;;-146.67;100.00;57155.34;5083791;28;61844;-82
2022/04/20 06:36:55;;;;;;;;;60.00;49.25;;;;;-146.67;100.00;57155.34;5083768;28;61813;-80
2022/04/20 06:39:21;;;;;;;;;75.75;53.00;;;;;-146.67;100.00;57155.34;5077061;27;61872;-80
2022/04/20 06:41:46;;;;;;;;;67.50;52.25;;;;;-146.67;100.00;57155.34;5084666;27;61791;-80
2022/04/20 06:44:12;;;;;;;;;73.00;55.50;;;;;-146.67;100.00;57155.34;5083896;27;61904;-81
2022/04/20 06:46:37;;;;;;;;;66.75;53.25;;;;;-146.67;100.00;57155.34;5084802;27;61833;-83
2022/04/20 06:49:03;;;;;;;;;70.75;53.00;;;;;-146.67;100.00;57155.34;5083823;27;61844;-81
2022/04/20 06:58:31;;;;;;;;;73.00;54.25;;;;;-146.67;100.00;57155.34;5082693;27;61798;-80
2022/04/20 06:59:50;;;;;;;;;68.00;53.00;;;;;-146.67;100.00;57155.34;5039313;28;62621;-81
2022/04/20 07:02:15;;;;;;;;;69.00;53.25;;;;;-146.67;100.00;57155.34;5025010;28;61908;-81
2022/04/20 07:04:41;;;;;;;;;60.00;48.50;;;;;-146.67;100.00;57155.34;5041623;28;61873;-80
2022/04/20 07:07:06;;;;;;;;;71.25;52.50;;;;;-146.67;100.00;57155.34;5041862;28;61883;-82
2022/04/20 07:09:32;;;;;;;;;64.75;50.25;;;;;-146.67;100.00;57155.34;5040563;28;62524;-81
2022/04/20 07:11:57;;;;;;;;;75.25;55.25;;;;;-146.67;100.00;57155.34;5041328;28;61981;-81
2022/04/20 07:14:23;;;;;;;;;68.25;52.75;;;;;-146.67;100.00;57155.34;5041437;28;62537;-81
2022/04/20 07:16:48;;;;;;;;;73.75;54.00;;;;;-146.67;100.00;57155.34;5040857;28;61876;-78
2022/04/20 07:19:16;;;;;;;;;66.75;54.00;;;;;-146.67;100.00;57155.34;5040499;28;62643;-80
2022/04/20 07:21:42;;;;;;;;;61.75;48.00;;;;;-146.67;100.00;57155.34;5040229;28;62089;-80
2022/04/20 07:24:07;;;;;;;;;72.25;51.50;;;;;-146.67;100.00;57155.34;5041099;28;62220;-80
2022/04/20 07:26:33;;;;;;;;;59.25;45.25;;;;;-146.67;100.00;57155.34;5041041;28;61857;-80
2022/04/20 07:28:58;;;;;;;;;61.00;47.75;;;;;-146.67;100.00;57155.34;5022948;28;63920;-80
2022/04/20 07:31:23;;;;;;;;;58.25;45.00;;;;;-146.67;100.00;57155.34;5041381;28;61975;-81
2022/04/20 07:33:49;;;;;;;;;60.50;44.00;;;;;-146.67;100.00;57155.34;5040261;28;61950;-81
2022/04/20 07:36:14;;;;;;;;;68.50;50.25;;;;;-146.67;100.00;57155.34;5050726;28;61723;-79
2022/04/20 07:38:40;;;;;;;;;55.50;41.75;;;;;-146.67;100.00;57155.34;5080356;28;61884;-80
2022/04/20 07:41:05;;;;;;;;;58.25;45.25;;;;;-146.67;100.00;57155.34;5076014;28;61963;-80
2022/04/20 07:43:32;;;;;;;;;46.00;36.75;;;;;-146.67;100.00;57155.34;5090793;27;61899;-80
2022/04/20 07:45:58;;;;;;;;;48.25;36.00;;;;;-146.67;100.00;57155.34;5084263;28;62000;-80
2022/04/20 07:48:23;;;;;;;;;55.00;41.50;;;;;-146.67;100.00;57155.34;5083472;28;62019;-80
2022/04/20 07:50:49;;;;;;;;;39.00;28.75;;;;;-146.67;100.00;57155.34;5083674;28;62007;-80
2022/04/20 07:53:16;;;;;;;;;51.25;39.00;;;;;-146.67;100.00;57155.34;5083806;28;61763;-80
2022/04/20 07:55:46;;;;;;;;;52.00;36.75;;;;;-146.67;100.00;57155.34;5079180;28;61943;-80
2022/04/20 07:58:12;;;;;;;;;51.75;38.75;;;;;-146.67;100.00;57155.34;5083325;28;61862;-80
2022/04/20 08:00:38;;;;;;;;;47.50;39.00;;;;;-146.67;100.00;57155.34;5083797;27;61850;-80
2022/04/20 08:03:09;;;;;;;;;41.50;34.25;;;;;-146.67;100.00;57155.34;5082212;28;61849;-79
2022/04/20 08:05:53;;;;;;;;;46.25;37.25;;;;;-146.67;100.00;57155.34;5083621;27;61730;-79
2022/04/20 08:08:20;;;;;;;;;46.75;37.50;;;;;-146.67;100.00;57155.34;5080661;28;63912;-80
2022/04/20 08:10:46;;;;;;;;;48.25;37.00;;;;;-146.67;100.00;57155.34;5081448;28;61860;-79
2022/04/20 08:15:56;;;;;;;;;47.00;36.25;;;;;-146.67;100.00;57155.34;5080867;28;61904;-79
2022/04/20 08:18:22;;;;;;;;;47.75;35.00;;;;;-146.67;100.00;57155.34;5088812;27;63411;-80
2022/04/20 08:20:48;;;;;;;;;45.25;38.50;;;;;-146.67;100.00;57155.34;5082377;27;61778;-80
2022/04/20 08:23:14;;;;;;;;;52.50;35.75;;;;;-146.67;100.00;57155.34;5081226;28;61797;-80
2022/04/20 08:25:40;;;;;;;;;43.75;34.75;;;;;-146.67;100.00;57155.34;5080842;28;61900;-79
2022/04/20 08:28:10;;;;;;;;;37.00;34.75;;;;;-146.67;100.00;57155.34;5081204;27;63197;-80
2022/04/20 08:30:37;;;;;;;;;40.25;35.75;;;;;-146.67;100.00;57155.34;5097614;27;62172;-80
2022/04/20 08:33:07;;;;;;;;;38.75;30.25;;;;;-146.67;100.00;57155.34;5080662;28;62361;-79
2022/04/20 08:35:33;;;;;;;;;34.50;27.25;;;;;-146.67;100.00;57155.34;5080275;28;61759;-79
2022/04/20 08:37:59;;;;;;;;;29.75;26.50;;;;;-146.67;100.00;57155.34;5081422;27;61951;-79
2022/04/20 08:40:25;;;;;;;;;31.50;27.50;;;;;-146.67;100.00;57155.34;5080523;27;61822;-79
2022/04/20 08:42:51;;;;;;;;;32.50;28.75;;;;;-146.67;100.00;57155.34;5082089;27;61828;-79
2022/04/20 08:45:17;;;;;;;;;28.50;26.25;;;;;-146.67;100.00;57155.34;5082389;27;62045;-79
2022/04/20 08:47:44;;;;;;;;;31.25;25.75;;;;;-146.67;100.00;57155.34;5089407;27;63608;-79
2022/04/20 08:50:10;;;;;;;;;32.50;25.75;;;;;-146.67;100.00;57155.34;5077715;28;61866;-80
2022/04/20 08:52:37;;;;;;;;;31.25;28.00;;;;;-146.67;100.00;57155.34;5081625;28;62091;-80
2022/04/20 08:55:07;;;;;;;;;26.00;22.75;;;;;-146.67;100.00;57155.34;5096199;27;61848;-80
2022/04/20 08:57:34;;;;;;;;;36.25;29.50;;;;;-146.67;100.00;57155.34;5094368;27;64117;-79
2022/04/20 09:00:00;;;;;;;;;24.00;23.25;;;;;-146.67;100.00;57155.34;5081681;28;61785;-82
2022/04/20 09:02:28;;;;;;;;;27.50;27.50;;;;;-146.67;100.00;57155.34;5081614;28;62390;-81
2022/04/20 09:04:54;;;;;;;;;34.50;25.50;;;;;-146.67;100.00;57155.34;5078778;28;61869;-81
2022/04/20 09:07:20;;;;;;;;;22.75;22.25;;;;;-146.67;100.00;57155.34;5079457;28;62019;-81
2022/04/20 09:09:46;;;;;;;;;31.00;26.00;;;;;-146.67;100.00;57155.34;5079467;28;61805;-81
2022/04/20 09:12:16;;;;;;;;;27.25;22.75;;;;;-146.67;100.00;57155.34;5078690;28;62396;-81
2022/04/20 09:14:45;;;;;;;;;27.50;23.25;;;;;-146.67;100.00;57155.34;5096611;27;61922;-81
2022/04/20 09:17:16;;;;;;;;;29.75;24.75;;;;;-146.67;100.00;57155.34;5095834;27;63352;-81
2022/04/20 09:19:41;;;;;;;;;34.50;28.25;;;;;-146.67;100.00;57155.34;5088693;27;61923;-81
2022/04/20 09:22:28;;;;;;;;;32.75;24.00;;;;;-146.67;100.00;57155.34;5079399;28;61857;-81
2022/04/20 09:25:08;;;;;;;;;27.50;23.25;;;;;-146.67;100.00;57155.34;5079203;28;62680;-82
2022/04/20 09:27:35;;;;;;;;;27.75;22.75;;;;;-146.67;100.00;57155.34;5079044;28;63908;-81
2022/04/20 09:30:01;;;;;;;;;22.25;22.00;;;;;-146.67;100.00;57155.34;5079803;28;61995;-82
2022/04/20 09:32:46;;;;;;;;;22.00;17.00;;;;;-146.67;100.00;57155.34;5096911;27;61753;-82
2022/04/20 09:35:14;;;;;;;;;27.50;19.75;;;;;-146.67;100.00;57155.34;5078615;28;61826;-80
2022/04/20 09:37:42;;;;;;;;;22.50;20.50;;;;;-146.67;100.00;57155.34;5076605;28;64514;-82
2022/04/20 09:40:11;;;;;;;;;23.00;18.50;;;;;-146.67;100.00;57155.34;5077071;27;61748;-83
2022/04/20 09:42:55;;;;;;;;;18.75;16.50;;;;;-146.67;100.00;57155.34;5091860;27;61897;-82
2022/04/20 09:45:21;;;;;;;;;17.50;17.50;;;;;-146.67;100.00;57155.34;5080298;28;61800;-80
2022/04/20 09:50:30;;;;;;;;;24.00;20.25;;;;;-146.67;100.00;57155.34;5081432;28;61848;-78
2022/04/20 09:52:59;;;;;;;;;22.50;13.75;;;;;-146.67;100.00;57155.34;5096839;27;62154;-78
2022/04/20 09:55:35;;;;;;;;;17.50;13.25;;;;;-146.67;100.00;57155.34;5088974;27;62003;-79
2022/04/20 09:58:21;;;;;;;;;21.25;19.50;;;;;-146.67;100.00;57155.34;5081322;27;61788;-78
2022/04/20 10:00:51;;;;;;;;;17.75;13.50;;;;;-146.67;100.00;57155.34;5081673;27;61812;-78
2022/04/20 10:03:31;;;;;;;;;17.75;17.75;;;;;-146.67;100.00;57155.34;5080698;27;61994;-78
2022/04/20 10:05:57;;;;;;;;;25.25;14.75;;;;;-146.67;100.00;57155.34;5078172;28;61805;-79
2022/04/20 10:08:23;;;;;;;;;14.75;13.75;;;;;-146.67;100.00;57155.34;5080361;28;62818;-78
2022/04/20 10:10:52;;;;;;;;;23.75;17.75;;;;;-146.67;100.00;57155.34;5096810;27;61817;-78
2022/04/20 10:13:19;;;;;;;;;18.75;17.00;;;;;-146.67;100.00;57155.34;5080665;28;61855;-78
2022/04/20 10:16:09;;;;;;;;;17.50;16.00;;;;;-146.67;100.00;57155.34;5083414;27;61973;-77
2022/04/20 10:18:39;;;;;;;;;20.00;13.50;;;;;-146.67;100.00;57155.34;5080166;27;62014;-78
2022/04/20 10:21:07;;;;;;;;;14.00;12.00;;;;;-146.67;100.00;57155.34;5095513;27;61884;-78
2022/04/20 10:23:34;;;;;;;;;12.25;12.00;;;;;-146.67;100.00;57155.34;5080716;27;62126;-78
2022/04/20 10:26:06;;;;;;;;;13.50;12.00;;;;;-146.67;100.00;57155.34;5081442;27;62040;-78
2022/04/20 10:28:59;;;;;;;;;11.25;11.00;;;;;-146.67;100.00;57155.34;5077850;28;62892;-78
2022/04/20 10:32:22;;;;;;;;;10.25;10.25;;;;;-146.67;100.00;57155.34;5079513;28;61786;-82
2022/04/20 10:34:50;;;;;;;;;15.25;14.00;;;;;-146.67;100.00;57155.34;5018852;28;62369;-81
2022/04/20 10:37:20;;;;;;;;;14.75;12.75;;;;;-146.67;100.00;57155.34;5018030;28;61824;-81
2022/04/20 10:39:46;;;;;;;;;11.50;11.50;;;;;-146.67;100.00;57155.34;5033482;28;62075;-81
2022/04/20 10:42:12;;;;;;;;;15.75;13.75;;;;;-146.67;100.00;57155.34;5057166;28;62004;-81
2022/04/20 10:44:57;;;;;;;;;9.00;8.25;;;;;-146.67;100.00;57155.34;5037958;28;62057;-80
2022/04/20 10:47:23;;;;;;;;;24.00;23.75;;;;;-146.67;100.00;57155.34;5031353;28;62404;-80
2022/04/20 10:49:52;;;;;;;;;12.00;9.00;;;;;-146.67;100.00;57155.34;5016733;28;62702;-81
2022/04/20 10:52:25;;;;;;;;;12.50;11.75;;;;;-146.67;100.00;57155.34;5001578;28;62099;-80
2022/04/20 10:54:53;;;;;;;;;9.75;9.50;;;;;-146.67;100.00;57155.34;5018375;28;62186;-80
2022/04/20 10:57:33;;;;;;;;;14.75;10.50;;;;;-146.67;100.00;57155.34;5018511;28;62214;-80
2022/04/20 11:00:20;;;;;;;;;9.50;6.00;;;;;-146.67;100.00;57155.34;5001067;28;64660;-81
2022/04/20 11:02:49;;;;;;;;;8.25;8.25;;;;;-146.67;100.00;57155.34;5018213;28;61827;-80
2022/04/20 11:05:15;;;;;;;;;8.00;7.25;;;;;-146.67;100.00;57155.34;5033249;28;61965;-80
2022/04/20 11:07:59;;;;;;;;;8.50;8.00;;;;;-146.67;100.00;57155.34;5015219;28;61946;-80
2022/04/20 11:10:25;;;;;;;;;9.25;7.00;;;;;-146.67;100.00;57155.34;5082005;28;61889;-80
2022/04/20 11:18:38;;;;;;;;;6.75;6.75;;;;;-146.67;100.00;57155.34;5079988;28;61928;-80
2022/04/20 11:18:39;;;;;;;;;9.50;8.50;;;;;-146.67;100.00;57155.34;5082717;27;62120;-80
2022/04/20 11:21:07;;;;;;;;;9.50;9.50;;;;;-146.67;100.00;57155.34;5083537;28;61872;-80